sensor_id;sensor_type;location;lat;lon;timestamp;P1;durP1;ratioP1;P2;durP2;ratioP2
23302;SDS011;11820;48.738;9.092;2022-10-16T00:02:16;4.13;;;1.53;;
23302;SDS011;11820;48.738;9.092;2022-10-16T00:04:41;3.63;;;1.50;;
23302;SDS011;11820;48.738;9.092;2022-10-16T00:07:07;1.77;;;1.47;;
23302;SDS011;11820;48.738;9.092;2022-10-16T00:09:32;1.53;;;1.43;;
23302;SDS011;11820;48.738;9.092;2022-10-16T00:11:57;1.77;;;1.30;;
23302;SDS011;11820;48.738;9.092;2022-10-16T00:14:23;2.77;;;1.73;;
23302;SDS011;11820;48.738;9.092;2022-10-16T00:16:48;3.00;;;1.90;;
23302;SDS011;11820;48.738;9.092;2022-10-16T00:19:13;2.10;;;1.60;;
23302;SDS011;11820;48.738;9.092;2022-10-16T00:21:39;2.03;;;1.47;;
23302;SDS011;11820;48.738;9.092;2022-10-16T00:24:05;3.10;;;1.57;;
23302;SDS011;11820;48.738;9.092;2022-10-16T00:26:33;2.60;;;1.57;;
23302;SDS011;11820;48.738;9.092;2022-10-16T00:29:00;2.77;;;1.30;;
23302;SDS011;11820;48.738;9.092;2022-10-16T00:31:27;2.67;;;1.23;;
23302;SDS011;11820;48.738;9.092;2022-10-16T00:33:52;1.70;;;1.30;;
23302;SDS011;11820;48.738;9.092;2022-10-16T00:36:19;1.37;;;1.13;;
23302;SDS011;11820;48.738;9.092;2022-10-16T00:38:46;3.53;;;1.30;;
23302;SDS011;11820;48.738;9.092;2022-10-16T00:41:13;4.90;;;1.43;;
23302;SDS011;11820;48.738;9.092;2022-10-16T00:46:17;3.23;;;1.40;;
23302;SDS011;11820;48.738;9.092;2022-10-16T00:48:45;2.20;;;1.30;;
23302;SDS011;11820;48.738;9.092;2022-10-16T00:51:15;1.60;;;1.50;;
23302;SDS011;11820;48.738;9.092;2022-10-16T00:53:42;5.03;;;1.37;;
23302;SDS011;11820;48.738;9.092;2022-10-16T00:56:07;1.80;;;1.13;;
23302;SDS011;11820;48.738;9.092;2022-10-16T00:58:33;2.67;;;1.30;;
23302;SDS011;11820;48.738;9.092;2022-10-16T01:00:58;2.77;;;1.67;;
23302;SDS011;11820;48.738;9.092;2022-10-16T01:06:12;2.40;;;1.43;;
23302;SDS011;11820;48.738;9.092;2022-10-16T01:11:52;3.53;;;1.40;;
23302;SDS011;11820;48.738;9.092;2022-10-16T01:14:34;3.30;;;1.47;;
23302;SDS011;11820;48.738;9.092;2022-10-16T01:17:12;2.03;;;1.00;;
23302;SDS011;11820;48.738;9.092;2022-10-16T01:19:53;2.43;;;1.47;;
23302;SDS011;11820;48.738;9.092;2022-10-16T01:22:46;2.77;;;1.33;;
23302;SDS011;11820;48.738;9.092;2022-10-16T01:25:36;3.03;;;1.30;;
23302;SDS011;11820;48.738;9.092;2022-10-16T01:28:18;1.47;;;1.10;;
23302;SDS011;11820;48.738;9.092;2022-10-16T01:30:49;2.03;;;1.20;;
23302;SDS011;11820;48.738;9.092;2022-10-16T01:33:22;2.30;;;0.97;;
23302;SDS011;11820;48.738;9.092;2022-10-16T01:35:53;1.33;;;1.20;;
23302;SDS011;11820;48.738;9.092;2022-10-16T01:38:30;3.87;;;1.07;;
23302;SDS011;11820;48.738;9.092;2022-10-16T01:41:01;1.40;;;1.20;;
23302;SDS011;11820;48.738;9.092;2022-10-16T01:43:33;1.50;;;1.03;;
23302;SDS011;11820;48.738;9.092;2022-10-16T01:46:03;3.30;;;1.47;;
23302;SDS011;11820;48.738;9.092;2022-10-16T01:48:30;2.43;;;1.37;;
23302;SDS011;11820;48.738;9.092;2022-10-16T01:50:59;3.10;;;1.17;;
23302;SDS011;11820;48.738;9.092;2022-10-16T01:53:30;1.43;;;1.10;;
23302;SDS011;11820;48.738;9.092;2022-10-16T01:55:56;5.70;;;1.20;;
23302;SDS011;11820;48.738;9.092;2022-10-16T01:58:23;3.23;;;1.33;;
23302;SDS011;11820;48.738;9.092;2022-10-16T02:00:50;1.57;;;1.17;;
23302;SDS011;11820;48.738;9.092;2022-10-16T02:03:18;3.03;;;1.47;;
23302;SDS011;11820;48.738;9.092;2022-10-16T02:05:52;1.33;;;1.10;;
23302;SDS011;11820;48.738;9.092;2022-10-16T02:08:23;1.20;;;1.10;;
23302;SDS011;11820;48.738;9.092;2022-10-16T02:10:50;4.83;;;1.50;;
23302;SDS011;11820;48.738;9.092;2022-10-16T02:16:10;2.33;;;1.10;;
23302;SDS011;11820;48.738;9.092;2022-10-16T02:18:37;1.27;;;1.00;;
23302;SDS011;11820;48.738;9.092;2022-10-16T02:21:06;2.00;;;1.10;;
23302;SDS011;11820;48.738;9.092;2022-10-16T02:23:54;2.30;;;1.20;;
23302;SDS011;11820;48.738;9.092;2022-10-16T02:26:27;2.23;;;1.10;;
23302;SDS011;11820;48.738;9.092;2022-10-16T02:28:58;2.87;;;1.10;;
23302;SDS011;11820;48.738;9.092;2022-10-16T02:31:30;1.47;;;0.93;;
23302;SDS011;11820;48.738;9.092;2022-10-16T02:33:59;1.80;;;0.90;;
23302;SDS011;11820;48.738;9.092;2022-10-16T02:36:27;1.47;;;1.10;;
23302;SDS011;11820;48.738;9.092;2022-10-16T02:38:54;0.90;;;0.90;;
23302;SDS011;11820;48.738;9.092;2022-10-16T02:41:21;0.80;;;0.80;;
23302;SDS011;11820;48.738;9.092;2022-10-16T02:43:46;3.67;;;1.40;;
23302;SDS011;11820;48.738;9.092;2022-10-16T02:46:12;1.20;;;1.07;;
23302;SDS011;11820;48.738;9.092;2022-10-16T02:48:37;1.37;;;1.20;;
23302;SDS011;11820;48.738;9.092;2022-10-16T02:51:04;2.03;;;1.00;;
23302;SDS011;11820;48.738;9.092;2022-10-16T02:53:29;1.10;;;1.00;;
23302;SDS011;11820;48.738;9.092;2022-10-16T02:55:55;4.10;;;1.00;;
23302;SDS011;11820;48.738;9.092;2022-10-16T02:58:20;2.67;;;1.13;;
23302;SDS011;11820;48.738;9.092;2022-10-16T03:00:46;1.27;;;1.13;;
23302;SDS011;11820;48.738;9.092;2022-10-16T03:03:11;1.10;;;1.00;;
23302;SDS011;11820;48.738;9.092;2022-10-16T03:05:37;1.93;;;1.13;;
23302;SDS011;11820;48.738;9.092;2022-10-16T03:08:02;1.10;;;1.00;;
23302;SDS011;11820;48.738;9.092;2022-10-16T03:10:27;1.93;;;1.20;;
23302;SDS011;11820;48.738;9.092;2022-10-16T03:12:53;0.80;;;0.77;;
23302;SDS011;11820;48.738;9.092;2022-10-16T03:15:18;1.37;;;1.20;;
23302;SDS011;11820;48.738;9.092;2022-10-16T03:17:43;2.60;;;1.00;;
23302;SDS011;11820;48.738;9.092;2022-10-16T03:20:09;2.10;;;0.80;;
23302;SDS011;11820;48.738;9.092;2022-10-16T03:22:34;1.20;;;1.10;;
23302;SDS011;11820;48.738;9.092;2022-10-16T03:25:00;2.00;;;1.00;;
23302;SDS011;11820;48.738;9.092;2022-10-16T03:27:25;2.93;;;1.10;;
23302;SDS011;11820;48.738;9.092;2022-10-16T03:29:50;1.40;;;1.07;;
23302;SDS011;11820;48.738;9.092;2022-10-16T03:32:16;2.00;;;1.27;;
23302;SDS011;11820;48.738;9.092;2022-10-16T03:34:41;3.63;;;1.20;;
23302;SDS011;11820;48.738;9.092;2022-10-16T03:37:06;2.40;;;1.10;;
23302;SDS011;11820;48.738;9.092;2022-10-16T03:39:32;1.67;;;0.87;;
23302;SDS011;11820;48.738;9.092;2022-10-16T03:41:57;1.67;;;1.07;;
23302;SDS011;11820;48.738;9.092;2022-10-16T03:44:22;3.83;;;1.00;;
23302;SDS011;11820;48.738;9.092;2022-10-16T03:46:48;1.87;;;0.97;;
23302;SDS011;11820;48.738;9.092;2022-10-16T03:49:13;1.47;;;0.90;;
23302;SDS011;11820;48.738;9.092;2022-10-16T03:51:38;4.53;;;1.20;;
23302;SDS011;11820;48.738;9.092;2022-10-16T03:54:04;0.93;;;0.93;;
23302;SDS011;11820;48.738;9.092;2022-10-16T03:56:29;2.37;;;1.23;;
23302;SDS011;11820;48.738;9.092;2022-10-16T03:58:54;2.27;;;1.20;;
23302;SDS011;11820;48.738;9.092;2022-10-16T04:01:19;1.80;;;1.03;;
23302;SDS011;11820;48.738;9.092;2022-10-16T04:03:45;2.30;;;1.00;;
23302;SDS011;11820;48.738;9.092;2022-10-16T04:06:10;1.03;;;1.00;;
23302;SDS011;11820;48.738;9.092;2022-10-16T04:08:35;2.20;;;1.00;;
23302;SDS011;11820;48.738;9.092;2022-10-16T04:11:02;4.67;;;1.27;;
23302;SDS011;11820;48.738;9.092;2022-10-16T04:13:28;2.20;;;1.00;;
23302;SDS011;11820;48.738;9.092;2022-10-16T04:15:53;2.17;;;1.10;;
23302;SDS011;11820;48.738;9.092;2022-10-16T04:18:19;1.73;;;1.10;;
23302;SDS011;11820;48.738;9.092;2022-10-16T04:20:44;2.37;;;1.60;;
23302;SDS011;11820;48.738;9.092;2022-10-16T04:23:09;1.77;;;1.20;;
23302;SDS011;11820;48.738;9.092;2022-10-16T04:25:35;1.17;;;1.00;;
23302;SDS011;11820;48.738;9.092;2022-10-16T04:28:00;2.10;;;1.03;;
23302;SDS011;11820;48.738;9.092;2022-10-16T04:30:26;3.23;;;1.17;;
23302;SDS011;11820;48.738;9.092;2022-10-16T04:32:51;1.40;;;1.20;;
23302;SDS011;11820;48.738;9.092;2022-10-16T04:35:17;1.40;;;1.03;;
23302;SDS011;11820;48.738;9.092;2022-10-16T04:37:43;3.70;;;1.20;;
23302;SDS011;11820;48.738;9.092;2022-10-16T04:40:09;1.43;;;1.30;;
23302;SDS011;11820;48.738;9.092;2022-10-16T04:42:34;4.33;;;1.13;;
23302;SDS011;11820;48.738;9.092;2022-10-16T04:44:59;1.13;;;0.93;;
23302;SDS011;11820;48.738;9.092;2022-10-16T04:47:25;2.30;;;1.10;;
23302;SDS011;11820;48.738;9.092;2022-10-16T04:49:50;3.03;;;1.27;;
23302;SDS011;11820;48.738;9.092;2022-10-16T04:52:15;2.90;;;1.10;;
23302;SDS011;11820;48.738;9.092;2022-10-16T04:54:41;1.23;;;1.10;;
23302;SDS011;11820;48.738;9.092;2022-10-16T04:57:06;3.53;;;1.10;;
23302;SDS011;11820;48.738;9.092;2022-10-16T04:59:31;1.87;;;1.10;;
23302;SDS011;11820;48.738;9.092;2022-10-16T05:01:57;2.00;;;1.13;;
23302;SDS011;11820;48.738;9.092;2022-10-16T05:04:22;4.30;;;1.10;;
23302;SDS011;11820;48.738;9.092;2022-10-16T05:06:48;1.47;;;0.90;;
23302;SDS011;11820;48.738;9.092;2022-10-16T05:09:13;1.77;;;1.30;;
23302;SDS011;11820;48.738;9.092;2022-10-16T05:11:38;4.17;;;1.20;;
23302;SDS011;11820;48.738;9.092;2022-10-16T05:14:03;0.97;;;0.80;;
23302;SDS011;11820;48.738;9.092;2022-10-16T05:16:29;2.90;;;1.30;;
23302;SDS011;11820;48.738;9.092;2022-10-16T05:18:55;2.70;;;1.10;;
23302;SDS011;11820;48.738;9.092;2022-10-16T05:21:21;3.50;;;1.20;;
23302;SDS011;11820;48.738;9.092;2022-10-16T05:23:46;3.53;;;1.50;;
23302;SDS011;11820;48.738;9.092;2022-10-16T05:26:12;1.93;;;1.17;;
23302;SDS011;11820;48.738;9.092;2022-10-16T05:28:37;1.97;;;1.23;;
23302;SDS011;11820;48.738;9.092;2022-10-16T05:31:06;1.80;;;1.23;;
23302;SDS011;11820;48.738;9.092;2022-10-16T05:33:32;3.37;;;1.20;;
23302;SDS011;11820;48.738;9.092;2022-10-16T05:36:08;1.20;;;1.10;;
23302;SDS011;11820;48.738;9.092;2022-10-16T05:38:34;5.17;;;1.47;;
23302;SDS011;11820;48.738;9.092;2022-10-16T05:41:00;1.07;;;1.00;;
23302;SDS011;11820;48.738;9.092;2022-10-16T05:43:27;5.13;;;1.30;;
23302;SDS011;11820;48.738;9.092;2022-10-16T05:46:02;4.20;;;1.10;;
23302;SDS011;11820;48.738;9.092;2022-10-16T05:48:29;2.80;;;1.20;;
23302;SDS011;11820;48.738;9.092;2022-10-16T05:50:56;3.83;;;1.70;;
23302;SDS011;11820;48.738;9.092;2022-10-16T05:53:30;2.47;;;1.17;;
23302;SDS011;11820;48.738;9.092;2022-10-16T05:55:57;1.53;;;1.17;;
23302;SDS011;11820;48.738;9.092;2022-10-16T05:58:23;1.90;;;1.20;;
23302;SDS011;11820;48.738;9.092;2022-10-16T06:00:53;6.40;;;1.23;;
23302;SDS011;11820;48.738;9.092;2022-10-16T06:03:25;3.17;;;1.30;;
23302;SDS011;11820;48.738;9.092;2022-10-16T06:05:51;3.17;;;1.30;;
23302;SDS011;11820;48.738;9.092;2022-10-16T06:08:17;1.30;;;1.17;;
23302;SDS011;11820;48.738;9.092;2022-10-16T06:10:43;1.20;;;1.00;;
23302;SDS011;11820;48.738;9.092;2022-10-16T06:13:09;1.63;;;1.10;;
23302;SDS011;11820;48.738;9.092;2022-10-16T06:15:35;2.70;;;1.23;;
23302;SDS011;11820;48.738;9.092;2022-10-16T06:18:00;2.90;;;1.30;;
23302;SDS011;11820;48.738;9.092;2022-10-16T06:20:26;1.73;;;1.20;;
23302;SDS011;11820;48.738;9.092;2022-10-16T06:22:51;2.03;;;1.20;;
23302;SDS011;11820;48.738;9.092;2022-10-16T06:25:16;1.20;;;1.10;;
23302;SDS011;11820;48.738;9.092;2022-10-16T06:27:42;2.83;;;1.27;;
23302;SDS011;11820;48.738;9.092;2022-10-16T06:30:07;2.50;;;1.40;;
23302;SDS011;11820;48.738;9.092;2022-10-16T06:32:33;1.70;;;1.13;;
23302;SDS011;11820;48.738;9.092;2022-10-16T06:34:58;4.77;;;1.17;;
23302;SDS011;11820;48.738;9.092;2022-10-16T06:37:23;2.53;;;1.20;;
23302;SDS011;11820;48.738;9.092;2022-10-16T06:39:50;3.23;;;1.17;;
23302;SDS011;11820;48.738;9.092;2022-10-16T06:42:17;4.13;;;1.37;;
23302;SDS011;11820;48.738;9.092;2022-10-16T06:44:42;5.07;;;1.30;;
23302;SDS011;11820;48.738;9.092;2022-10-16T06:47:08;2.47;;;1.20;;
23302;SDS011;11820;48.738;9.092;2022-10-16T06:49:33;1.57;;;1.10;;
23302;SDS011;11820;48.738;9.092;2022-10-16T06:51:58;6.23;;;1.33;;
23302;SDS011;11820;48.738;9.092;2022-10-16T06:54:24;1.63;;;1.17;;
23302;SDS011;11820;48.738;9.092;2022-10-16T06:56:50;3.50;;;1.17;;
23302;SDS011;11820;48.738;9.092;2022-10-16T06:59:16;3.63;;;1.37;;
23302;SDS011;11820;48.738;9.092;2022-10-16T07:01:41;2.03;;;1.20;;
23302;SDS011;11820;48.738;9.092;2022-10-16T07:04:06;2.97;;;1.20;;
23302;SDS011;11820;48.738;9.092;2022-10-16T07:06:32;3.43;;;1.10;;
23302;SDS011;11820;48.738;9.092;2022-10-16T07:09:00;2.63;;;1.33;;
23302;SDS011;11820;48.738;9.092;2022-10-16T07:11:27;3.53;;;1.20;;
23302;SDS011;11820;48.738;9.092;2022-10-16T07:13:52;1.47;;;1.00;;
23302;SDS011;11820;48.738;9.092;2022-10-16T07:16:18;1.30;;;1.20;;
23302;SDS011;11820;48.738;9.092;2022-10-16T07:18:45;2.93;;;1.33;;
23302;SDS011;11820;48.738;9.092;2022-10-16T07:23:37;3.00;;;1.10;;
23302;SDS011;11820;48.738;9.092;2022-10-16T07:26:03;3.67;;;1.07;;
23302;SDS011;11820;48.738;9.092;2022-10-16T07:28:29;6.40;;;1.53;;
23302;SDS011;11820;48.738;9.092;2022-10-16T07:30:55;1.90;;;1.20;;
23302;SDS011;11820;48.738;9.092;2022-10-16T07:33:24;4.33;;;1.50;;
23302;SDS011;11820;48.738;9.092;2022-10-16T07:35:53;1.73;;;1.17;;
23302;SDS011;11820;48.738;9.092;2022-10-16T07:38:20;2.47;;;1.10;;
23302;SDS011;11820;48.738;9.092;2022-10-16T07:40:46;2.43;;;1.00;;
23302;SDS011;11820;48.738;9.092;2022-10-16T07:43:12;1.37;;;1.27;;
23302;SDS011;11820;48.738;9.092;2022-10-16T07:45:38;1.63;;;1.07;;
23302;SDS011;11820;48.738;9.092;2022-10-16T07:48:12;1.63;;;1.23;;
23302;SDS011;11820;48.738;9.092;2022-10-16T07:50:38;4.47;;;1.33;;
23302;SDS011;11820;48.738;9.092;2022-10-16T07:53:03;2.97;;;1.30;;
23302;SDS011;11820;48.738;9.092;2022-10-16T07:55:29;2.77;;;1.40;;
23302;SDS011;11820;48.738;9.092;2022-10-16T07:57:54;2.90;;;1.20;;
23302;SDS011;11820;48.738;9.092;2022-10-16T08:00:20;4.97;;;1.40;;
23302;SDS011;11820;48.738;9.092;2022-10-16T08:02:45;3.37;;;1.20;;
23302;SDS011;11820;48.738;9.092;2022-10-16T08:05:10;3.50;;;1.37;;
23302;SDS011;11820;48.738;9.092;2022-10-16T08:07:36;3.07;;;1.73;;
23302;SDS011;11820;48.738;9.092;2022-10-16T08:10:01;1.77;;;1.00;;
23302;SDS011;11820;48.738;9.092;2022-10-16T08:12:27;1.87;;;1.43;;
23302;SDS011;11820;48.738;9.092;2022-10-16T08:14:53;2.03;;;1.30;;
23302;SDS011;11820;48.738;9.092;2022-10-16T08:17:18;4.00;;;1.17;;
23302;SDS011;11820;48.738;9.092;2022-10-16T08:19:44;2.27;;;1.80;;
23302;SDS011;11820;48.738;9.092;2022-10-16T08:22:13;2.10;;;1.20;;
23302;SDS011;11820;48.738;9.092;2022-10-16T08:24:39;3.53;;;1.43;;
23302;SDS011;11820;48.738;9.092;2022-10-16T08:27:04;1.27;;;1.00;;
23302;SDS011;11820;48.738;9.092;2022-10-16T08:29:29;3.33;;;1.30;;
23302;SDS011;11820;48.738;9.092;2022-10-16T08:31:55;1.30;;;1.20;;
23302;SDS011;11820;48.738;9.092;2022-10-16T08:34:20;1.10;;;1.00;;
23302;SDS011;11820;48.738;9.092;2022-10-16T08:36:45;3.73;;;1.10;;
23302;SDS011;11820;48.738;9.092;2022-10-16T08:39:11;3.37;;;1.17;;
23302;SDS011;11820;48.738;9.092;2022-10-16T08:47:17;1.13;;;1.03;;
23302;SDS011;11820;48.738;9.092;2022-10-16T08:49:58;3.23;;;1.20;;
23302;SDS011;11820;48.738;9.092;2022-10-16T08:52:30;4.00;;;1.43;;
23302;SDS011;11820;48.738;9.092;2022-10-16T08:55:00;4.10;;;1.30;;
23302;SDS011;11820;48.738;9.092;2022-10-16T08:57:26;1.10;;;0.87;;
23302;SDS011;11820;48.738;9.092;2022-10-16T08:59:52;1.40;;;1.10;;
23302;SDS011;11820;48.738;9.092;2022-10-16T09:15:58;4.30;;;0.87;;
23302;SDS011;11820;48.738;9.092;2022-10-16T09:21:19;4.10;;;1.13;;
23302;SDS011;11820;48.738;9.092;2022-10-16T09:23:48;3.00;;;1.20;;
23302;SDS011;11820;48.738;9.092;2022-10-16T09:26:14;1.80;;;1.23;;
23302;SDS011;11820;48.738;9.092;2022-10-16T09:28:41;5.17;;;1.20;;
23302;SDS011;11820;48.738;9.092;2022-10-16T09:31:40;2.10;;;1.10;;
23302;SDS011;11820;48.738;9.092;2022-10-16T09:34:02;1.67;;;1.27;;
23302;SDS011;11820;48.738;9.092;2022-10-16T09:36:39;2.67;;;1.07;;
23302;SDS011;11820;48.738;9.092;2022-10-16T09:39:08;2.20;;;1.00;;
23302;SDS011;11820;48.738;9.092;2022-10-16T09:41:35;3.63;;;1.20;;
23302;SDS011;11820;48.738;9.092;2022-10-16T09:44:04;1.33;;;1.23;;
23302;SDS011;11820;48.738;9.092;2022-10-16T09:46:41;4.83;;;0.80;;
23302;SDS011;11820;48.738;9.092;2022-10-16T09:49:23;2.93;;;0.87;;
23302;SDS011;11820;48.738;9.092;2022-10-16T09:51:51;2.30;;;1.23;;
23302;SDS011;11820;48.738;9.092;2022-10-16T09:54:27;2.57;;;1.00;;
23302;SDS011;11820;48.738;9.092;2022-10-16T09:56:52;5.40;;;1.23;;
23302;SDS011;11820;48.738;9.092;2022-10-16T09:59:28;1.70;;;1.07;;
23302;SDS011;11820;48.738;9.092;2022-10-16T10:01:56;1.97;;;1.10;;
23302;SDS011;11820;48.738;9.092;2022-10-16T10:04:25;1.87;;;1.10;;
23302;SDS011;11820;48.738;9.092;2022-10-16T10:06:53;4.13;;;1.10;;
23302;SDS011;11820;48.738;9.092;2022-10-16T10:09:54;2.00;;;1.57;;
23302;SDS011;11820;48.738;9.092;2022-10-16T10:12:46;3.00;;;1.17;;
23302;SDS011;11820;48.738;9.092;2022-10-16T10:15:06;3.43;;;1.10;;
23302;SDS011;11820;48.738;9.092;2022-10-16T10:17:44;1.63;;;1.13;;
23302;SDS011;11820;48.738;9.092;2022-10-16T10:23:00;2.00;;;1.03;;
23302;SDS011;11820;48.738;9.092;2022-10-16T10:50:19;1.70;;;1.10;;
23302;SDS011;11820;48.738;9.092;2022-10-16T10:58:34;1.03;;;0.97;;
23302;SDS011;11820;48.738;9.092;2022-10-16T11:06:40;1.17;;;0.87;;
23302;SDS011;11820;48.738;9.092;2022-10-16T11:09:12;2.47;;;0.97;;
23302;SDS011;11820;48.738;9.092;2022-10-16T11:12:18;1.43;;;1.17;;
23302;SDS011;11820;48.738;9.092;2022-10-16T11:14:56;1.40;;;1.03;;
23302;SDS011;11820;48.738;9.092;2022-10-16T11:17:40;2.17;;;1.00;;
23302;SDS011;11820;48.738;9.092;2022-10-16T11:20:18;2.33;;;1.20;;
23302;SDS011;11820;48.738;9.092;2022-10-16T11:22:58;1.50;;;1.03;;
23302;SDS011;11820;48.738;9.092;2022-10-16T11:25:32;1.30;;;1.07;;
23302;SDS011;11820;48.738;9.092;2022-10-16T11:31:08;3.47;;;1.40;;
23302;SDS011;11820;48.738;9.092;2022-10-16T11:33:43;1.90;;;1.10;;
23302;SDS011;11820;48.738;9.092;2022-10-16T11:36:14;1.63;;;1.20;;
23302;SDS011;11820;48.738;9.092;2022-10-16T11:39:18;2.00;;;1.10;;
23302;SDS011;11820;48.738;9.092;2022-10-16T11:42:32;1.70;;;1.03;;
23302;SDS011;11820;48.738;9.092;2022-10-16T11:44:55;5.23;;;1.30;;
23302;SDS011;11820;48.738;9.092;2022-10-16T11:47:31;4.43;;;1.23;;
23302;SDS011;11820;48.738;9.092;2022-10-16T11:50:06;1.73;;;1.10;;
23302;SDS011;11820;48.738;9.092;2022-10-16T11:55:36;1.97;;;0.90;;
23302;SDS011;11820;48.738;9.092;2022-10-16T11:58:12;1.40;;;1.10;;
23302;SDS011;11820;48.738;9.092;2022-10-16T12:00:55;1.83;;;1.10;;
23302;SDS011;11820;48.738;9.092;2022-10-16T12:03:46;2.93;;;1.00;;
23302;SDS011;11820;48.738;9.092;2022-10-16T12:06:31;2.55;;;1.00;;
23302;SDS011;11820;48.738;9.092;2022-10-16T12:09:02;1.85;;;1.02;;
23302;SDS011;11820;48.738;9.092;2022-10-16T12:14:05;4.13;;;1.10;;
23302;SDS011;11820;48.738;9.092;2022-10-16T12:16:33;2.72;;;1.10;;
23302;SDS011;11820;48.738;9.092;2022-10-16T12:21:56;2.80;;;0.90;;
23302;SDS011;11820;48.738;9.092;2022-10-16T12:27:19;1.55;;;0.98;;
23302;SDS011;11820;48.738;9.092;2022-10-16T12:29:46;1.35;;;0.80;;
23302;SDS011;11820;48.738;9.092;2022-10-16T12:32:27;1.27;;;0.90;;
23302;SDS011;11820;48.738;9.092;2022-10-16T12:34:55;3.80;;;1.00;;
23302;SDS011;11820;48.738;9.092;2022-10-16T12:37:30;2.07;;;1.20;;
23302;SDS011;11820;48.738;9.092;2022-10-16T12:40:11;1.37;;;1.10;;
23302;SDS011;11820;48.738;9.092;2022-10-16T12:42:39;2.57;;;0.97;;
23302;SDS011;11820;48.738;9.092;2022-10-16T12:47:54;1.63;;;1.20;;
23302;SDS011;11820;48.738;9.092;2022-10-16T12:53:01;2.17;;;1.40;;
23302;SDS011;11820;48.738;9.092;2022-10-16T12:55:32;2.63;;;1.10;;
23302;SDS011;11820;48.738;9.092;2022-10-16T13:00:50;1.83;;;0.97;;
23302;SDS011;11820;48.738;9.092;2022-10-16T13:09:06;1.23;;;1.07;;
23302;SDS011;11820;48.738;9.092;2022-10-16T13:14:48;1.63;;;1.20;;
23302;SDS011;11820;48.738;9.092;2022-10-16T13:22:32;5.27;;;1.37;;
23302;SDS011;11820;48.738;9.092;2022-10-16T13:25:21;2.10;;;1.20;;
23302;SDS011;11820;48.738;9.092;2022-10-16T13:28:09;3.50;;;1.33;;
23302;SDS011;11820;48.738;9.092;2022-10-16T13:30:43;3.27;;;1.30;;
23302;SDS011;11820;48.738;9.092;2022-10-16T13:33:18;1.13;;;1.03;;
23302;SDS011;11820;48.738;9.092;2022-10-16T13:35:51;2.03;;;1.20;;
23302;SDS011;11820;48.738;9.092;2022-10-16T13:38:19;2.87;;;1.60;;
23302;SDS011;11820;48.738;9.092;2022-10-16T13:40:56;1.10;;;1.00;;
23302;SDS011;11820;48.738;9.092;2022-10-16T13:46:18;3.40;;;1.30;;
23302;SDS011;11820;48.738;9.092;2022-10-16T13:48:55;1.87;;;1.43;;
23302;SDS011;11820;48.738;9.092;2022-10-16T13:51:24;3.50;;;1.50;;
23302;SDS011;11820;48.738;9.092;2022-10-16T13:53:50;2.57;;;1.30;;
23302;SDS011;11820;48.738;9.092;2022-10-16T13:56:17;6.57;;;1.43;;
23302;SDS011;11820;48.738;9.092;2022-10-16T13:58:45;2.87;;;1.27;;
23302;SDS011;11820;48.738;9.092;2022-10-16T14:03:48;1.80;;;1.60;;
23302;SDS011;11820;48.738;9.092;2022-10-16T14:06:16;3.97;;;1.33;;
23302;SDS011;11820;48.738;9.092;2022-10-16T14:08:44;4.53;;;1.37;;
23302;SDS011;11820;48.738;9.092;2022-10-16T14:11:13;4.70;;;1.23;;
23302;SDS011;11820;48.738;9.092;2022-10-16T14:13:46;3.13;;;1.17;;
23302;SDS011;11820;48.738;9.092;2022-10-16T14:16:17;2.17;;;1.77;;
23302;SDS011;11820;48.738;9.092;2022-10-16T14:18:46;2.23;;;1.10;;
23302;SDS011;11820;48.738;9.092;2022-10-16T14:21:21;4.50;;;1.60;;
23302;SDS011;11820;48.738;9.092;2022-10-16T14:23:46;2.77;;;1.30;;
23302;SDS011;11820;48.738;9.092;2022-10-16T14:26:12;4.07;;;1.80;;
23302;SDS011;11820;48.738;9.092;2022-10-16T14:28:39;1.97;;;1.27;;
23302;SDS011;11820;48.738;9.092;2022-10-16T14:33:53;7.60;;;4.27;;
23302;SDS011;11820;48.738;9.092;2022-10-16T14:36:18;5.90;;;3.03;;
23302;SDS011;11820;48.738;9.092;2022-10-16T14:38:52;3.97;;;2.87;;
23302;SDS011;11820;48.738;9.092;2022-10-16T14:41:22;3.80;;;2.33;;
23302;SDS011;11820;48.738;9.092;2022-10-16T14:43:50;7.67;;;3.20;;
23302;SDS011;11820;48.738;9.092;2022-10-16T14:46:36;4.23;;;2.23;;
23302;SDS011;11820;48.738;9.092;2022-10-16T14:51:35;2.23;;;1.67;;
23302;SDS011;11820;48.738;9.092;2022-10-16T14:54:07;2.67;;;1.60;;
23302;SDS011;11820;48.738;9.092;2022-10-16T14:56:34;2.67;;;1.87;;
23302;SDS011;11820;48.738;9.092;2022-10-16T14:59:17;1.47;;;1.17;;
23302;SDS011;11820;48.738;9.092;2022-10-16T15:01:47;2.13;;;1.10;;
23302;SDS011;11820;48.738;9.092;2022-10-16T15:04:12;4.37;;;1.60;;
23302;SDS011;11820;48.738;9.092;2022-10-16T15:06:38;2.37;;;1.53;;
23302;SDS011;11820;48.738;9.092;2022-10-16T15:09:04;1.93;;;1.60;;
23302;SDS011;11820;48.738;9.092;2022-10-16T15:11:29;4.60;;;1.70;;
23302;SDS011;11820;48.738;9.092;2022-10-16T15:13:57;2.70;;;1.50;;
23302;SDS011;11820;48.738;9.092;2022-10-16T15:16:22;4.47;;;1.37;;
23302;SDS011;11820;48.738;9.092;2022-10-16T15:18:47;2.03;;;1.40;;
23302;SDS011;11820;48.738;9.092;2022-10-16T15:21:46;2.33;;;1.47;;
23302;SDS011;11820;48.738;9.092;2022-10-16T15:24:07;2.70;;;1.70;;
23302;SDS011;11820;48.738;9.092;2022-10-16T15:26:36;2.70;;;1.40;;
23302;SDS011;11820;48.738;9.092;2022-10-16T15:29:01;2.70;;;1.77;;
23302;SDS011;11820;48.738;9.092;2022-10-16T15:31:27;4.90;;;1.87;;
23302;SDS011;11820;48.738;9.092;2022-10-16T15:33:53;3.17;;;1.57;;
23302;SDS011;11820;48.738;9.092;2022-10-16T15:36:29;2.67;;;1.70;;
23302;SDS011;11820;48.738;9.092;2022-10-16T15:38:58;2.00;;;1.80;;
23302;SDS011;11820;48.738;9.092;2022-10-16T15:41:24;3.40;;;1.83;;
23302;SDS011;11820;48.738;9.092;2022-10-16T15:43:50;2.27;;;1.43;;
23302;SDS011;11820;48.738;9.092;2022-10-16T15:46:17;2.90;;;1.90;;
23302;SDS011;11820;48.738;9.092;2022-10-16T15:48:51;5.07;;;1.60;;
23302;SDS011;11820;48.738;9.092;2022-10-16T15:51:21;3.83;;;1.90;;
23302;SDS011;11820;48.738;9.092;2022-10-16T15:53:46;2.83;;;1.70;;
23302;SDS011;11820;48.738;9.092;2022-10-16T15:56:12;3.93;;;1.70;;
23302;SDS011;11820;48.738;9.092;2022-10-16T15:58:38;5.93;;;1.77;;
23302;SDS011;11820;48.738;9.092;2022-10-16T16:01:03;2.93;;;1.47;;
23302;SDS011;11820;48.738;9.092;2022-10-16T16:03:30;7.33;;;1.80;;
23302;SDS011;11820;48.738;9.092;2022-10-16T16:05:55;2.97;;;1.70;;
23302;SDS011;11820;48.738;9.092;2022-10-16T16:08:21;1.60;;;1.50;;
23302;SDS011;11820;48.738;9.092;2022-10-16T16:10:57;5.00;;;2.20;;
23302;SDS011;11820;48.738;9.092;2022-10-16T16:13:23;4.73;;;1.67;;
23302;SDS011;11820;48.738;9.092;2022-10-16T16:15:49;2.40;;;1.50;;
23302;SDS011;11820;48.738;9.092;2022-10-16T16:18:14;3.30;;;2.23;;
23302;SDS011;11820;48.738;9.092;2022-10-16T16:20:39;3.63;;;2.20;;
23302;SDS011;11820;48.738;9.092;2022-10-16T16:23:04;4.27;;;2.50;;
23302;SDS011;11820;48.738;9.092;2022-10-16T16:25:30;5.17;;;4.10;;
23302;SDS011;11820;48.738;9.092;2022-10-16T16:27:55;5.33;;;4.67;;
23302;SDS011;11820;48.738;9.092;2022-10-16T16:30:20;5.07;;;4.00;;
23302;SDS011;11820;48.738;9.092;2022-10-16T16:32:46;3.67;;;3.27;;
23302;SDS011;11820;48.738;9.092;2022-10-16T16:35:11;5.10;;;3.43;;
23302;SDS011;11820;48.738;9.092;2022-10-16T16:37:36;4.20;;;3.80;;
23302;SDS011;11820;48.738;9.092;2022-10-16T16:40:02;4.83;;;3.07;;
23302;SDS011;11820;48.738;9.092;2022-10-16T16:42:27;5.13;;;2.90;;
23302;SDS011;11820;48.738;9.092;2022-10-16T16:44:53;5.17;;;2.57;;
23302;SDS011;11820;48.738;9.092;2022-10-16T16:47:19;3.93;;;2.03;;
23302;SDS011;11820;48.738;9.092;2022-10-16T16:49:44;5.30;;;1.97;;
23302;SDS011;11820;48.738;9.092;2022-10-16T16:52:11;6.27;;;2.40;;
23302;SDS011;11820;48.738;9.092;2022-10-16T16:54:37;3.20;;;2.57;;
23302;SDS011;11820;48.738;9.092;2022-10-16T16:57:02;3.10;;;2.83;;
23302;SDS011;11820;48.738;9.092;2022-10-16T16:59:29;3.97;;;2.60;;
23302;SDS011;11820;48.738;9.092;2022-10-16T17:01:57;5.13;;;2.73;;